Time;durP1;ratioP1;P1;durP2;ratioP2;P2;SDS_P1;SDS_P2;PMS_P1;PMS_P2;Temp;Humidity;BMP_temperature;BMP_pressure;BME280_temperature;BME280_humidity;BME280_pressure;Samples;Min_cycle;Max_cycle;Signal;HPM_P1;HPM_P2
2021/10/12 00:02:20;;;;;;;36.92;28.88;;;9.60;81.60;;;;;;6219799;28;20457;-77
2021/10/12 00:05:22;;;;;;;38.53;29.63;;;9.60;81.90;;;;;;6220177;28;20443;-77
2021/10/12 00:08:24;;;;;;;37.90;27.67;;;9.60;81.80;;;;;;6220620;28;20441;-77
2021/10/12 00:11:27;;;;;;;35.67;27.60;;;9.60;81.80;;;;;;6219633;28;20451;-77
2021/10/12 00:14:29;;;;;;;35.28;27.92;;;9.60;82.00;;;;;;6220013;28;20948;-77
2021/10/12 00:17:31;;;;;;;35.58;28.58;;;9.60;81.70;;;;;;6220211;28;20514;-77
2021/10/12 00:20:33;;;;;;;42.23;29.63;;;9.60;81.40;;;;;;6220003;28;20465;-77
2021/10/12 00:23:34;;;;;;;34.35;27.17;;;9.70;81.70;;;;;;6220067;28;20417;-76
2021/10/12 00:26:38;;;;;;;36.40;31.33;;;9.70;81.70;;;;;;6220069;28;20417;-76
2021/10/12 00:29:39;;;;;;;40.75;30.83;;;9.80;81.20;;;;;;6219975;28;20417;-76
2021/10/12 00:32:41;;;;;;;42.58;33.30;;;9.90;81.90;;;;;;6220480;28;20912;-77
2021/10/12 00:35:43;;;;;;;44.67;34.90;;;10.00;82.00;;;;;;6210179;28;20934;-76
2021/10/12 00:38:45;;;;;;;49.72;36.35;;;10.10;80.80;;;;;;6196424;28;20418;-76
2021/10/12 00:41:49;;;;;;;44.00;35.70;;;10.20;81.30;;;;;;6195188;28;20422;-77
2021/10/12 00:44:51;;;;;;;49.08;35.80;;;10.20;81.50;;;;;;6221513;23;20414;-81
2021/10/12 00:47:57;;;;;;;48.70;36.90;;;10.30;81.70;;;;;;6225466;28;20429;-82
2021/10/12 00:50:59;;;;;;;54.10;37.85;;;10.30;81.90;;;;;;6226790;28;20421;-82
2021/10/12 00:54:01;;;;;;;57.30;37.40;;;10.40;82.30;;;;;;6226557;28;20809;-83
2021/10/12 00:57:07;;;;;;;51.72;37.58;;;10.40;83.00;;;;;;6223863;28;20450;-83
2021/10/12 01:00:10;;;;;;;49.90;35.80;;;10.60;83.20;;;;;;6227958;28;20443;-83
2021/10/12 01:03:12;;;;;;;45.47;36.97;;;10.50;82.60;;;;;;6226631;28;20930;-82
2021/10/12 01:06:14;;;;;;;52.97;39.20;;;10.50;82.70;;;;;;6226761;28;20837;-82
2021/10/12 01:09:16;;;;;;;80.03;45.88;;;10.60;83.30;;;;;;6227007;28;20503;-82
2021/10/12 01:12:19;;;;;;;66.25;44.78;;;10.70;83.60;;;;;;6227506;28;20476;-82
2021/10/12 01:15:21;;;;;;;72.47;48.17;;;10.70;83.90;;;;;;6225736;28;20455;-82
2021/10/12 01:18:22;;;;;;;68.07;48.90;;;10.60;83.90;;;;;;6226736;28;20421;-82
2021/10/12 01:21:26;;;;;;;72.57;45.55;;;10.60;84.30;;;;;;6225225;28;20809;-82
2021/10/12 01:24:28;;;;;;;71.43;48.53;;;10.60;84.10;;;;;;6228641;28;20786;-82
2021/10/12 01:27:30;;;;;;;73.28;48.72;;;10.60;84.00;;;;;;6231963;28;20472;-82
2021/10/12 01:30:32;;;;;;;73.50;48.77;;;10.80;84.30;;;;;;6231563;28;20421;-82
2021/10/12 01:33:33;;;;;;;69.57;46.88;;;10.80;83.90;;;;;;6232697;28;20447;-82
2021/10/12 01:36:36;;;;;;;71.85;46.53;;;10.90;83.70;;;;;;6217825;28;20434;-81
2021/10/12 01:39:38;;;;;;;62.50;44.35;;;11.00;83.60;;;;;;6207509;28;21001;-82
2021/10/12 01:42:40;;;;;;;54.37;38.67;;;11.10;83.10;;;;;;6208468;28;20418;-83
2021/10/12 01:45:42;;;;;;;52.30;39.08;;;11.20;82.60;;;;;;6207552;28;20418;-82
2021/10/12 01:48:43;;;;;;;54.38;41.13;;;11.20;82.30;;;;;;6207978;28;20454;-81
2021/10/12 01:51:46;;;;;;;57.05;40.55;;;11.30;82.30;;;;;;6207178;28;20425;-82
2021/10/12 01:54:49;;;;;;;56.55;38.90;;;11.30;82.30;;;;;;6207186;28;20994;-81
2021/10/12 01:57:50;;;;;;;51.28;36.92;;;11.30;82.20;;;;;;6206564;28;20436;-83
2021/10/12 02:00:52;;;;;;;56.80;39.60;;;11.30;82.00;;;;;;6209199;28;20521;-82
2021/10/12 02:03:54;;;;;;;53.43;37.63;;;11.30;81.70;;;;;;6208992;28;20511;-82
2021/10/12 02:06:57;;;;;;;48.38;35.05;;;11.40;81.70;;;;;;6207680;28;20498;-82
2021/10/12 02:09:59;;;;;;;52.00;37.67;;;11.50;81.80;;;;;;6206636;28;20950;-82
2021/10/12 02:13:01;;;;;;;54.20;40.53;;;11.50;81.50;;;;;;6208459;28;20585;-82
2021/10/12 02:16:03;;;;;;;55.15;37.03;;;11.50;82.10;;;;;;6208558;28;20441;-82
2021/10/12 02:19:05;;;;;;;50.90;39.70;;;11.60;81.60;;;;;;6208325;28;20425;-82
2021/10/12 02:22:08;;;;;;;56.28;38.33;;;11.60;81.40;;;;;;6208666;28;20987;-81
2021/10/12 02:25:11;;;;;;;53.55;39.08;;;11.60;81.50;;;;;;6209519;28;20434;-81
2021/10/12 02:28:13;;;;;;;51.80;38.95;;;11.60;81.50;;;;;;6214659;28;20505;-80
2021/10/12 02:31:15;;;;;;;51.45;38.22;;;11.70;81.60;;;;;;6214192;28;20414;-81
2021/10/12 02:34:17;;;;;;;51.53;37.53;;;11.70;81.20;;;;;;6202181;28;20414;-81
2021/10/12 02:37:20;;;;;;;50.57;37.30;;;11.70;81.20;;;;;;6203942;28;20406;-81
2021/10/12 02:40:22;;;;;;;49.43;35.40;;;11.70;81.60;;;;;;6202436;28;20446;-82
2021/10/12 02:43:24;;;;;;;46.70;33.38;;;11.70;81.40;;;;;;6203033;28;20970;-82
2021/10/12 02:46:26;;;;;;;46.58;33.60;;;11.70;81.30;;;;;;6202865;28;20414;-82
2021/10/12 02:49:27;;;;;;;53.63;38.78;;;11.70;81.60;;;;;;6203446;28;20450;-82
2021/10/12 02:52:31;;;;;;;57.03;38.08;;;11.70;81.60;;;;;;6203459;28;20965;-82
2021/10/12 02:55:32;;;;;;;55.90;38.75;;;11.70;81.80;;;;;;6202265;28;20418;-82
2021/10/12 02:58:34;;;;;;;54.80;36.95;;;11.60;81.70;;;;;;6200656;28;20422;-81
2021/10/12 03:01:36;;;;;;;54.80;39.15;;;11.70;81.90;;;;;;6202171;28;20423;-82
2021/10/12 03:04:38;;;;;;;56.28;39.10;;;11.50;82.20;;;;;;6203354;28;20529;-82
2021/10/12 03:07:41;;;;;;;56.42;39.13;;;11.50;82.20;;;;;;6201838;28;20423;-81
2021/10/12 03:10:43;;;;;;;53.38;37.97;;;11.40;82.60;;;;;;6201502;28;20415;-82
2021/10/12 03:13:44;;;;;;;60.95;41.15;;;11.40;82.80;;;;;;6202826;28;20427;-82
2021/10/12 03:16:46;;;;;;;58.22;41.88;;;11.70;82.60;;;;;;6202608;28;20478;-82
2021/10/12 03:19:48;;;;;;;63.60;44.40;;;11.50;82.60;;;;;;6201926;28;20457;-81
2021/10/12 03:22:51;;;;;;;59.88;43.05;;;11.60;82.50;;;;;;6202906;28;20415;-81
2021/10/12 03:25:53;;;;;;;62.25;42.60;;;11.60;82.50;;;;;;6203160;28;20420;-81
2021/10/12 03:28:55;;;;;;;63.20;43.47;;;11.60;82.40;;;;;;6203701;28;20572;-81
2021/10/12 03:31:59;;;;;;;64.80;44.63;;;11.60;82.60;;;;;;6202361;28;20451;-81
2021/10/12 03:35:01;;;;;;;62.58;44.10;;;11.60;82.50;;;;;;6203290;28;20505;-81
2021/10/12 03:38:04;;;;;;;69.82;46.17;;;11.60;82.50;;;;;;6209027;28;20481;-81
2021/10/12 03:41:07;;;;;;;66.23;45.43;;;11.60;83.00;;;;;;6223994;28;20448;-81
2021/10/12 03:44:08;;;;;;;70.28;45.75;;;11.60;82.70;;;;;;6228023;28;20595;-81
2021/10/12 03:47:10;;;;;;;77.93;47.72;;;11.50;82.80;;;;;;6227398;28;20817;-81
2021/10/12 03:50:12;;;;;;;75.03;46.65;;;11.50;83.20;;;;;;6227923;28;20439;-81
2021/10/12 03:53:15;;;;;;;67.93;45.60;;;11.40;83.60;;;;;;6227711;28;20436;-81
2021/10/12 03:56:17;;;;;;;71.75;45.63;;;11.50;83.40;;;;;;6227074;28;20951;-81
2021/10/12 03:59:19;;;;;;;69.32;45.45;;;11.50;83.60;;;;;;6226645;28;20501;-80
2021/10/12 04:02:21;;;;;;;73.60;45.90;;;11.50;83.40;;;;;;6227479;28;20483;-81
2021/10/12 04:05:22;;;;;;;75.10;48.53;;;11.50;83.40;;;;;;6228279;28;20413;-81
2021/10/12 04:08:25;;;;;;;77.63;44.28;;;11.50;83.50;;;;;;6228948;28;20437;-80
2021/10/12 04:11:27;;;;;;;75.38;47.70;;;11.50;83.40;;;;;;6228361;28;20416;-80
2021/10/12 04:14:29;;;;;;;72.73;47.40;;;11.50;84.00;;;;;;6227510;28;20417;-80
2021/10/12 04:17:31;;;;;;;77.10;48.97;;;11.50;83.70;;;;;;6225767;28;20405;-81
2021/10/12 04:20:33;;;;;;;73.63;46.58;;;11.60;83.60;;;;;;6228282;28;20865;-81
2021/10/12 04:23:37;;;;;;;78.07;45.20;;;11.60;83.60;;;;;;6228467;28;20428;-80
2021/10/12 04:26:40;;;;;;;66.30;43.50;;;11.60;83.60;;;;;;6228422;28;20420;-81
2021/10/12 04:29:42;;;;;;;71.50;47.20;;;11.60;83.30;;;;;;6226829;28;20480;-80
2021/10/12 04:32:44;;;;;;;67.40;45.47;;;11.60;83.30;;;;;;6228154;28;20443;-81
2021/10/12 04:35:45;;;;;;;71.63;48.60;;;11.60;83.20;;;;;;6226802;28;20503;-80
2021/10/12 04:38:48;;;;;;;76.20;49.55;;;11.60;83.20;;;;;;6219885;28;20427;-80
2021/10/12 04:41:50;;;;;;;74.95;49.60;;;11.60;83.20;;;;;;6220999;28;20492;-80
2021/10/12 04:44:54;;;;;;;71.43;46.53;;;11.60;83.40;;;;;;6227812;28;21028;-81
2021/10/12 04:47:56;;;;;;;73.28;48.47;;;11.60;83.30;;;;;;6228493;28;20416;-80
2021/10/12 04:50:57;;;;;;;72.68;48.40;;;11.60;83.30;;;;;;6228491;28;20425;-80
2021/10/12 04:54:02;;;;;;;80.32;51.97;;;11.60;83.30;;;;;;6227747;28;20429;-80
2021/10/12 04:57:04;;;;;;;79.45;49.38;;;11.60;83.40;;;;;;6226795;28;20480;-80
2021/10/12 05:00:07;;;;;;;73.30;47.65;;;11.60;83.50;;;;;;6233427;28;20440;-80
2021/10/12 05:03:09;;;;;;;88.00;51.00;;;11.60;83.60;;;;;;6232292;28;20431;-80
2021/10/12 05:06:11;;;;;;;83.53;51.22;;;11.60;83.50;;;;;;6232176;28;20412;-80
2021/10/12 05:09:14;;;;;;;80.45;51.60;;;11.60;83.60;;;;;;6233872;28;20451;-79
2021/10/12 05:12:16;;;;;;;91.40;52.90;;;11.50;83.20;;;;;;6232041;28;20523;-78
2021/10/12 05:15:22;;;;;;;91.35;53.65;;;11.50;83.60;;;;;;6229294;28;20435;-78
2021/10/12 05:18:26;;;;;;;87.75;53.47;;;11.50;83.80;;;;;;6229745;28;20420;-78
2021/10/12 05:21:29;;;;;;;90.10;54.25;;;11.60;83.90;;;;;;6229765;28;20415;-79
2021/10/12 05:24:32;;;;;;;85.75;52.03;;;11.40;84.00;;;;;;6229800;28;20428;-79
2021/10/12 05:27:36;;;;;;;83.03;52.35;;;11.50;84.20;;;;;;6229373;28;20424;-79
2021/10/12 05:30:39;;;;;;;85.67;54.00;;;11.50;84.40;;;;;;6228116;28;20471;-78
2021/10/12 05:33:44;;;;;;;81.60;51.77;;;11.50;84.10;;;;;;6228793;28;20508;-78
2021/10/12 05:36:45;;;;;;;80.65;52.17;;;11.50;84.00;;;;;;6227922;28;20440;-79
2021/10/12 05:39:48;;;;;;;88.30;51.50;;;11.50;84.30;;;;;;6225671;28;20993;-78
2021/10/12 05:42:50;;;;;;;79.28;49.35;;;11.50;84.30;;;;;;6208310;28;20839;-78
2021/10/12 05:45:52;;;;;;;79.00;48.92;;;11.50;84.40;;;;;;6203179;28;20776;-78
2021/10/12 05:48:54;;;;;;;81.22;51.30;;;11.50;84.20;;;;;;6203042;28;20972;-78
2021/10/12 05:51:58;;;;;;;79.88;48.63;;;11.50;84.10;;;;;;6203779;28;20476;-78
2021/10/12 05:55:08;;;;;;;89.38;51.97;;;11.50;84.30;;;;;;6202499;28;20429;-78
2021/10/12 05:58:11;;;;;;;85.13;50.70;;;11.50;84.50;;;;;;6203208;28;20415;-78
2021/10/12 06:01:14;;;;;;;77.03;47.58;;;11.50;84.60;;;;;;6203538;28;20462;-78
2021/10/12 06:04:16;;;;;;;81.70;48.28;;;11.50;84.50;;;;;;6204512;28;20442;-79
2021/10/12 06:07:17;;;;;;;81.35;48.10;;;11.40;84.30;;;;;;6202600;28;20418;-79
2021/10/12 06:10:21;;;;;;;81.90;49.50;;;11.30;84.30;;;;;;6200321;28;20788;-78
2021/10/12 06:13:23;;;;;;;86.23;50.60;;;11.30;84.40;;;;;;6202107;28;20414;-78
2021/10/12 06:16:25;;;;;;;85.43;49.80;;;11.30;84.60;;;;;;6201168;28;20895;-78
2021/10/12 06:19:27;;;;;;;86.82;49.55;;;11.20;84.80;;;;;;6201952;28;20509;-78
2021/10/12 06:22:29;;;;;;;87.28;51.85;;;11.30;85.10;;;;;;6201390;28;20426;-78
2021/10/12 06:25:32;;;;;;;85.22;49.47;;;11.30;85.00;;;;;;6202817;28;20443;-78
2021/10/12 06:28:34;;;;;;;85.70;47.88;;;11.30;85.10;;;;;;6202782;28;20446;-79
2021/10/12 06:31:36;;;;;;;85.45;49.30;;;11.40;84.90;;;;;;6201497;28;20430;-79
2021/10/12 06:34:38;;;;;;;92.88;50.80;;;11.40;84.70;;;;;;6201660;28;20425;-79
2021/10/12 06:37:39;;;;;;;76.70;47.58;;;11.30;85.10;;;;;;6200914;28;20494;-78
2021/10/12 06:40:43;;;;;;;79.00;47.07;;;11.40;85.00;;;;;;6207774;28;20460;-78
2021/10/12 06:43:46;;;;;;;69.38;45.05;;;11.40;84.90;;;;;;6218923;28;20937;-78
2021/10/12 06:46:48;;;;;;;74.45;43.55;;;11.30;84.80;;;;;;6224103;28;20424;-78
2021/10/12 06:49:49;;;;;;;72.72;44.17;;;11.40;84.90;;;;;;6221967;28;20464;-78
2021/10/12 06:52:51;;;;;;;71.57;43.92;;;11.40;84.90;;;;;;6223723;28;20441;-78
2021/10/12 06:55:55;;;;;;;71.72;44.65;;;11.40;84.90;;;;;;6224354;28;20504;-78
2021/10/12 06:58:57;;;;;;;64.13;41.72;;;11.50;84.70;;;;;;6227721;28;20423;-78
2021/10/12 07:01:58;;;;;;;62.58;40.97;;;11.50;84.70;;;;;;6229531;28;20472;-81
2021/10/12 07:05:00;;;;;;;67.45;40.92;;;11.50;84.40;;;;;;6231539;28;20938;-79
2021/10/12 07:08:02;;;;;;;64.63;41.40;;;11.50;84.60;;;;;;6230967;28;20432;-79
2021/10/12 07:11:05;;;;;;;57.07;38.13;;;11.50;84.40;;;;;;6227981;28;20421;-79
2021/10/12 07:14:07;;;;;;;61.17;40.08;;;11.60;84.40;;;;;;6231493;28;20421;-79
2021/10/12 07:17:08;;;;;;;62.38;38.50;;;11.60;84.30;;;;;;6226978;28;20443;-78
2021/10/12 07:20:10;;;;;;;60.90;40.23;;;11.60;84.30;;;;;;6225899;28;20983;-78
2021/10/12 07:23:12;;;;;;;64.75;38.42;;;11.70;84.40;;;;;;6224467;28;20790;-78
2021/10/12 07:26:15;;;;;;;62.42;38.58;;;11.70;84.20;;;;;;6229746;28;20421;-82
2021/10/12 07:29:17;;;;;;;55.83;37.55;;;11.80;84.10;;;;;;6229137;28;20809;-79
2021/10/12 07:32:20;;;;;;;59.47;38.03;;;11.80;84.00;;;;;;6227631;28;20440;-80
2021/10/12 07:35:22;;;;;;;48.25;34.83;;;11.90;84.10;;;;;;6228845;28;20420;-80
2021/10/12 07:38:23;;;;;;;50.47;34.97;;;12.00;83.80;;;;;;6228593;28;20415;-80
2021/10/12 07:41:27;;;;;;;52.08;35.00;;;12.00;83.50;;;;;;6225074;28;21046;-79
2021/10/12 07:44:29;;;;;;;49.87;34.10;;;12.20;83.70;;;;;;6203280;28;20442;-79
2021/10/12 07:47:30;;;;;;;47.20;33.25;;;12.30;83.60;;;;;;6200189;28;20545;-79
2021/10/12 07:50:32;;;;;;;42.73;31.67;;;12.50;83.00;;;;;;6204432;28;20479;-79
2021/10/12 07:53:36;;;;;;;48.33;31.63;;;12.60;82.40;;;;;;6203120;28;20557;-79
2021/10/12 07:56:40;;;;;;;46.65;33.00;;;12.70;82.00;;;;;;6220176;28;20436;-81
2021/10/12 07:59:43;;;;;;;50.67;45.58;;;12.90;81.60;;;;;;6223063;28;20427;-78
2021/10/12 08:02:44;;;;;;;38.95;28.00;;;13.00;81.10;;;;;;6223412;28;20880;-78
2021/10/12 08:05:46;;;;;;;43.55;34.05;;;13.20;80.40;;;;;;6220766;28;20507;-77
2021/10/12 08:08:48;;;;;;;37.88;31.20;;;13.30;80.00;;;;;;6223489;28;20514;-78
2021/10/12 08:11:53;;;;;;;34.60;25.85;;;13.50;79.30;;;;;;6225826;28;20496;-78
2021/10/12 08:14:59;;;;;;;32.00;24.90;;;13.50;79.00;;;;;;6224407;28;20413;-78
2021/10/12 08:18:01;;;;;;;33.22;23.75;;;13.60;78.60;;;;;;6225299;28;20421;-78
2021/10/12 08:21:02;;;;;;;34.47;27.08;;;13.60;77.80;;;;;;6224702;28;20933;-78
2021/10/12 08:24:06;;;;;;;33.53;24.70;;;13.50;77.90;;;;;;6225284;28;20914;-78
2021/10/12 08:27:09;;;;;;;39.30;28.80;;;13.50;78.50;;;;;;6224075;28;20421;-78
2021/10/12 08:30:12;;;;;;;28.88;22.33;;;13.50;79.40;;;;;;6224208;28;20416;-78
2021/10/12 08:33:14;;;;;;;35.33;23.80;;;13.50;78.20;;;;;;6227680;28;20439;-77
2021/10/12 08:36:16;;;;;;;29.23;23.23;;;13.50;78.80;;;;;;6232440;28;20446;-78
2021/10/12 08:39:18;;;;;;;32.30;23.00;;;13.40;78.80;;;;;;6232525;28;20488;-78
2021/10/12 08:42:27;;;;;;;30.98;24.23;;;13.30;79.50;;;;;;6232071;28;20416;-78
2021/10/12 08:45:31;;;;;;;34.40;24.65;;;13.40;79.40;;;;;;6213305;28;20411;-78
2021/10/12 08:48:34;;;;;;;30.73;22.97;;;13.30;79.60;;;;;;6207677;28;20473;-78
2021/10/12 08:51:36;;;;;;;30.60;23.65;;;13.40;79.40;;;;;;6207933;28;20434;-78
2021/10/12 08:54:38;;;;;;;31.67;23.60;;;13.40;79.40;;;;;;6211422;28;20545;-78
2021/10/12 08:57:43;;;;;;;29.85;22.38;;;13.40;79.30;;;;;;6232537;28;20426;-78
2021/10/12 09:00:45;;;;;;;29.60;22.57;;;13.30;79.70;;;;;;6232231;28;20474;-78
2021/10/12 09:03:52;;;;;;;32.72;25.13;;;13.30;79.70;;;;;;6232769;28;20424;-79
2021/10/12 09:06:54;;;;;;;30.70;24.27;;;13.30;79.80;;;;;;6232880;28;20436;-79
2021/10/12 09:09:57;;;;;;;38.95;25.55;;;13.30;79.90;;;;;;6233413;28;20423;-80
2021/10/12 09:13:08;;;;;;;120.53;68.50;;;13.30;80.20;;;;;;6238176;28;20447;-78
2021/10/12 09:16:12;;;;;;;207.70;122.43;;;13.40;79.80;;;;;;6236002;28;20459;-79
2021/10/12 09:19:15;;;;;;;37.97;28.67;;;13.60;79.40;;;;;;6233473;28;20420;-80
2021/10/12 09:22:17;;;;;;;49.65;31.58;;;13.70;79.40;;;;;;6232781;28;21040;-78
2021/10/12 09:25:18;;;;;;;39.55;28.73;;;13.70;78.60;;;;;;6230824;28;20405;-79
2021/10/12 09:28:27;;;;;;;44.13;31.83;;;13.70;78.90;;;;;;6231366;28;20476;-76
2021/10/12 09:31:34;;;;;;;41.83;31.73;;;13.60;78.40;;;;;;6228545;28;20427;-77
2021/10/12 09:34:37;;;;;;;28.20;22.27;;;13.50;78.20;;;;;;6227785;28;20425;-77
2021/10/12 09:37:38;;;;;;;24.85;21.15;;;13.60;78.30;;;;;;6228257;28;20412;-76
2021/10/12 09:40:42;;;;;;;26.77;22.27;;;13.60;78.10;;;;;;6227410;28;20439;-75
2021/10/12 09:43:45;;;;;;;24.88;21.63;;;13.70;78.40;;;;;;6223237;28;20429;-75
2021/10/12 09:46:49;;;;;;;30.20;20.98;;;13.70;78.10;;;;;;6216204;28;20783;-75
2021/10/12 09:50:06;;;;;;;137.50;70.88;;;13.80;77.60;;;;;;6223077;28;20474;-76
2021/10/12 09:53:08;;;;;;;42.22;28.52;;;13.90;77.90;;;;;;6222865;28;20443;-76
2021/10/12 09:56:11;;;;;;;35.83;22.90;;;14.00;77.60;;;;;;6223250;28;20517;-75
2021/10/12 09:59:14;;;;;;;28.75;23.70;;;14.20;76.80;;;;;;6224346;28;20499;-78
2021/10/12 10:02:18;;;;;;;28.88;21.33;;;14.30;76.80;;;;;;6230989;28;20420;-78
2021/10/12 10:05:20;;;;;;;26.67;21.90;;;14.30;76.10;;;;;;6234620;28;20409;-78
2021/10/12 10:08:23;;;;;;;47.73;33.97;;;14.50;76.70;;;;;;6238444;28;20588;-78
2021/10/12 10:11:27;;;;;;;38.72;28.33;;;14.70;75.60;;;;;;6234491;28;20413;-77
2021/10/12 10:14:31;;;;;;;61.58;42.80;;;14.80;75.20;;;;;;6235172;28;20452;-78
2021/10/12 10:17:33;;;;;;;29.02;21.80;;;15.00;74.30;;;;;;6233441;28;20499;-78
2021/10/12 10:20:35;;;;;;;26.48;17.40;;;15.30;72.80;;;;;;6233855;28;20443;-79
2021/10/12 10:23:57;;;;;;;52.15;42.72;;;15.40;71.40;;;;;;6229775;28;20423;-77
2021/10/12 10:26:59;;;;;;;22.88;16.75;;;15.40;70.50;;;;;;6228978;28;20420;-78
2021/10/12 10:30:25;;;;;;;28.67;24.15;;;15.30;71.00;;;;;;6227897;28;20417;-78
2021/10/12 10:33:29;;;;;;;17.67;15.63;;;15.20;71.20;;;;;;6223319;28;20416;-77
2021/10/12 10:36:31;;;;;;;20.02;17.33;;;15.20;71.20;;;;;;6224286;28;20805;-76
2021/10/12 10:39:36;;;;;;;20.58;15.60;;;15.20;71.90;;;;;;6223432;28;20438;-78
2021/10/12 10:42:53;;;;;;;21.58;19.05;;;15.20;71.30;;;;;;6225852;28;20487;-78
2021/10/12 10:45:56;;;;;;;21.73;17.38;;;15.00;72.20;;;;;;6222212;28;20421;-79
2021/10/12 10:49:04;;;;;;;20.17;16.50;;;14.90;72.30;;;;;;6203421;28;20437;-81
2021/10/12 10:52:07;;;;;;;25.38;17.55;;;14.90;72.70;;;;;;6202087;28;20440;-78
2021/10/12 10:55:09;;;;;;;21.23;16.63;;;15.00;73.00;;;;;;6212702;28;20942;-81
2021/10/12 10:58:16;;;;;;;23.58;17.63;;;15.00;72.70;;;;;;6216475;28;20423;-78
2021/10/12 11:01:36;;;;;;;22.58;16.02;;;15.10;72.50;;;;;;6222043;28;20474;-77
2021/10/12 11:04:42;;;;;;;21.92;15.55;;;15.10;72.00;;;;;;6222474;28;20432;-76
2021/10/12 11:07:43;;;;;;;18.90;15.43;;;15.20;71.00;;;;;;6221726;28;20416;-75
2021/10/12 11:10:49;;;;;;;16.40;14.43;;;15.40;71.10;;;;;;6221675;28;20417;-76
2021/10/12 11:13:53;;;;;;;19.33;14.83;;;15.50;69.80;;;;;;6221880;28;20432;-77
2021/10/12 11:17:09;;;;;;;18.23;14.30;;;15.50;69.60;;;;;;6219151;28;20431;-75
2021/10/12 11:20:13;;;;;;;16.50;14.27;;;15.60;71.10;;;;;;6226340;28;20934;-75
2021/10/12 11:23:23;;;;;;;18.67;16.03;;;15.70;69.80;;;;;;6244976;28;20518;-75
2021/10/12 11:26:27;;;;;;;20.15;14.55;;;15.90;69.80;;;;;;6225829;28;20444;-75
2021/10/12 11:29:29;;;;;;;18.60;15.63;;;16.00;68.60;;;;;;6214503;28;20922;-76
2021/10/12 11:32:32;;;;;;;18.40;14.15;;;16.20;67.60;;;;;;6220839;28;20437;-75
2021/10/12 11:35:36;;;;;;;15.13;13.20;;;16.10;68.30;;;;;;6220703;28;20503;-76
2021/10/12 11:38:40;;;;;;;23.58;14.65;;;16.10;68.40;;;;;;6220918;28;20421;-75
2021/10/12 11:41:41;;;;;;;18.48;14.48;;;16.10;68.80;;;;;;6220801;28;20427;-76
2021/10/12 11:44:43;;;;;;;17.42;12.13;;;16.20;68.40;;;;;;6221685;28;20802;-77
2021/10/12 11:47:46;;;;;;;18.15;14.45;;;16.20;67.60;;;;;;6220743;28;20491;-76
2021/10/12 11:50:48;;;;;;;17.25;13.07;;;16.10;68.40;;;;;;6220931;28;20417;-77
2021/10/12 11:53:51;;;;;;;15.60;12.05;;;16.10;68.50;;;;;;6220696;28;20783;-76
2021/10/12 11:56:53;;;;;;;13.63;10.53;;;16.10;68.50;;;;;;6221197;28;20525;-76
2021/10/12 11:59:56;;;;;;;13.82;9.75;;;16.20;68.10;;;;;;6220588;28;20447;-76
2021/10/12 12:02:59;;;;;;;14.43;9.07;;;16.20;66.30;;;;;;6221006;28;20432;-77
2021/10/12 12:06:01;;;;;;;12.70;8.37;;;16.30;66.00;;;;;;6221293;28;20568;-75
2021/10/12 12:09:05;;;;;;;13.95;10.25;;;16.50;65.40;;;;;;6220262;28;20429;-76
2021/10/12 12:12:08;;;;;;;11.15;8.23;;;16.50;65.30;;;;;;6221694;28;20898;-76
2021/10/12 12:15:11;;;;;;;11.90;7.90;;;16.50;65.30;;;;;;6220622;28;20917;-76
2021/10/12 12:18:15;;;;;;;15.30;8.50;;;16.60;64.60;;;;;;6220933;28;20495;-77
2021/10/12 12:21:31;;;;;;;12.45;8.40;;;16.70;64.00;;;;;;6220313;28;20467;-77
2021/10/12 12:24:33;;;;;;;11.43;8.53;;;16.90;64.10;;;;;;6221187;28;21098;-77
2021/10/12 12:27:51;;;;;;;10.32;8.73;;;16.90;62.60;;;;;;6218448;28;20431;-76
2021/10/12 12:30:53;;;;;;;10.43;7.70;;;16.80;62.80;;;;;;6200217;28;20427;-76
2021/10/12 12:33:58;;;;;;;13.77;8.63;;;16.80;63.50;;;;;;6196075;28;20422;-76
2021/10/12 12:37:01;;;;;;;12.57;10.00;;;16.70;63.30;;;;;;6196228;28;20440;-75
2021/10/12 12:40:23;;;;;;;13.48;9.27;;;16.70;63.80;;;;;;6195913;28;20525;-76
2021/10/12 12:43:27;;;;;;;13.90;7.27;;;16.60;63.80;;;;;;6196227;28;20423;-77
2021/10/12 12:46:29;;;;;;;12.60;7.03;;;16.50;62.70;;;;;;6196337;28;20426;-76
2021/10/12 12:49:32;;;;;;;16.25;8.52;;;16.40;62.70;;;;;;6196896;28;20510;-76
2021/10/12 12:52:34;;;;;;;12.18;6.72;;;16.30;64.10;;;;;;6195907;28;20451;-77
2021/10/12 12:55:39;;;;;;;11.83;7.37;;;16.30;63.70;;;;;;6207011;28;20417;-77
2021/10/12 12:58:43;;;;;;;14.52;8.00;;;16.20;64.80;;;;;;6219975;28;20420;-77
2021/10/12 13:01:52;;;;;;;17.08;8.55;;;16.10;66.50;;;;;;6220189;28;20408;-77
2021/10/12 13:04:55;;;;;;;13.05;7.65;;;16.00;68.30;;;;;;6220040;28;20440;-77
2021/10/12 13:07:57;;;;;;;14.25;8.68;;;16.10;70.20;;;;;;6219383;28;20495;-77
2021/10/12 13:10:59;;;;;;;11.23;8.18;;;16.10;70.30;;;;;;6219015;28;20518;-78
2021/10/12 13:14:01;;;;;;;11.55;8.00;;;16.10;71.10;;;;;;6219755;28;20444;-76
2021/10/12 13:17:04;;;;;;;9.93;6.15;;;16.10;70.60;;;;;;6219472;28;20571;-77
2021/10/12 13:20:10;;;;;;;20.52;8.40;;;16.10;69.90;;;;;;6221136;28;20436;-76
2021/10/12 13:23:12;;;;;;;11.20;7.40;;;16.00;69.80;;;;;;6223732;28;20417;-76
2021/10/12 13:26:14;;;;;;;9.45;6.50;;;15.90;70.30;;;;;;6223514;28;20739;-77
2021/10/12 13:29:15;;;;;;;9.17;6.80;;;15.80;70.60;;;;;;6213453;28;20430;-76
2021/10/12 13:32:18;;;;;;;13.13;6.18;;;15.80;71.10;;;;;;6151935;28;20417;-75
2021/10/12 13:35:21;;;;;;;12.77;6.75;;;15.70;72.30;;;;;;6151265;28;20943;-76
2021/10/12 13:38:23;;;;;;;13.55;6.25;;;15.60;72.40;;;;;;6150850;28;20962;-76
2021/10/12 13:41:25;;;;;;;11.30;6.35;;;15.50;72.00;;;;;;6151881;28;20441;-76
2021/10/12 13:44:27;;;;;;;14.55;7.35;;;15.40;72.20;;;;;;6151546;29;20445;-76
2021/10/12 13:47:28;;;;;;;13.80;7.53;;;15.40;72.50;;;;;;6151248;28;20426;-75
2021/10/12 13:50:31;;;;;;;13.90;7.38;;;15.40;72.60;;;;;;6150761;28;20418;-76
2021/10/12 13:53:33;;;;;;;12.10;7.60;;;15.20;72.30;;;;;;6150895;28;21167;-76
2021/10/12 13:56:35;;;;;;;14.48;8.38;;;15.10;71.60;;;;;;6170700;28;20948;-76
2021/10/12 13:59:37;;;;;;;17.83;7.50;;;15.10;72.40;;;;;;6217312;28;20519;-76
2021/10/12 14:02:39;;;;;;;10.73;7.20;;;14.90;72.10;;;;;;6223337;28;20417;-77
2021/10/12 14:05:42;;;;;;;15.45;9.13;;;14.90;72.20;;;;;;6223284;28;20417;-76
2021/10/12 14:08:44;;;;;;;13.93;8.60;;;14.80;72.50;;;;;;6223413;28;20436;-77
2021/10/12 14:11:46;;;;;;;13.60;8.75;;;14.80;72.30;;;;;;6223401;28;20424;-77
2021/10/12 14:14:48;;;;;;;12.73;10.60;;;14.80;72.10;;;;;;6222872;28;20779;-76
2021/10/12 14:17:50;;;;;;;15.05;9.93;;;14.80;72.50;;;;;;6222932;28;20408;-76
2021/10/12 14:20:53;;;;;;;11.10;7.95;;;14.80;72.00;;;;;;6223015;28;20432;-76
2021/10/12 14:23:56;;;;;;;10.57;6.22;;;14.80;72.00;;;;;;6222721;28;20457;-77
2021/10/12 14:26:59;;;;;;;11.85;6.32;;;14.80;71.80;;;;;;6214154;28;20787;-77
2021/10/12 14:30:02;;;;;;;10.23;5.68;;;14.80;71.20;;;;;;6214390;28;20423;-76
2021/10/12 14:33:04;;;;;;;9.55;5.07;;;14.80;71.60;;;;;;6192833;28;20438;-77
2021/10/12 14:36:07;;;;;;;16.83;10.83;;;14.80;70.60;;;;;;6223452;28;20444;-77
2021/10/12 14:39:09;;;;;;;26.48;16.30;;;14.80;71.20;;;;;;6224634;28;20787;-77
2021/10/12 14:42:11;;;;;;;13.75;7.22;;;14.90;70.70;;;;;;6225384;28;20413;-77
2021/10/12 14:45:13;;;;;;;14.73;9.30;;;14.80;71.20;;;;;;6225440;28;20993;-77
2021/10/12 14:48:15;;;;;;;9.63;5.10;;;14.80;71.00;;;;;;6224376;28;20439;-78
2021/10/12 14:51:18;;;;;;;8.63;6.17;;;14.70;70.50;;;;;;6221894;28;20474;-76
2021/10/12 14:54:20;;;;;;;8.77;5.13;;;14.70;70.80;;;;;;6221847;28;20421;-76
2021/10/12 14:57:22;;;;;;;10.18;6.00;;;14.70;70.60;;;;;;6221277;28;20435;-78
2021/10/12 15:00:23;;;;;;;8.80;5.38;;;14.70;71.00;;;;;;6222643;28;20431;-76
2021/10/12 15:03:25;;;;;;;13.38;7.70;;;14.70;70.90;;;;;;6223109;28;20423;-76
2021/10/12 15:06:29;;;;;;;7.95;4.85;;;14.70;71.00;;;;;;6221999;28;20417;-77
2021/10/12 15:09:32;;;;;;;8.38;5.20;;;14.70;70.50;;;;;;6221433;28;20968;-77
2021/10/12 15:12:35;;;;;;;8.32;5.95;;;14.80;71.00;;;;;;6221921;28;20441;-76
2021/10/12 15:15:37;;;;;;;10.68;5.70;;;14.80;71.10;;;;;;6221236;28;20417;-76
2021/10/12 15:18:39;;;;;;;6.97;4.88;;;14.80;71.10;;;;;;6220849;28;20930;-75
2021/10/12 15:21:44;;;;;;;11.38;5.32;;;14.90;70.60;;;;;;6221657;28;20420;-77
2021/10/12 15:24:46;;;;;;;7.00;4.90;;;14.80;70.40;;;;;;6221901;28;20504;-78
2021/10/12 15:27:48;;;;;;;8.48;3.92;;;14.80;70.30;;;;;;6221167;28;20417;-75
2021/10/12 15:30:50;;;;;;;8.55;4.18;;;14.80;70.30;;;;;;6214194;28;20418;-76
2021/10/12 15:33:51;;;;;;;8.13;3.97;;;14.80;70.30;;;;;;6201736;28;20419;-76